sensor_id;sensor_type;location;lat;lon;timestamp;pressure;altitude;pressure_sealevel;temperature;humidity
11856;BME280;5987;53.140;8.904;2022-12-20T00:00:29;101422.38;;;5.10;100.00
11856;BME280;5987;53.140;8.904;2022-12-20T00:03:32;101417.09;;;5.22;100.00
11856;BME280;5987;53.140;8.904;2022-12-20T00:06:37;101424.94;;;5.21;100.00
11856;BME280;5987;53.140;8.904;2022-12-20T00:09:42;101414.31;;;5.55;100.00
11856;BME280;5987;53.140;8.904;2022-12-20T00:12:46;101404.72;;;5.61;100.00
11856;BME280;5987;53.140;8.904;2022-12-20T00:15:49;101400.44;;;5.56;100.00
11856;BME280;5987;53.140;8.904;2022-12-20T00:18:56;101400.34;;;5.63;100.00
11856;BME280;5987;53.140;8.904;2022-12-20T00:22:00;101407.34;;;5.61;100.00
11856;BME280;5987;53.140;8.904;2022-12-20T00:25:07;101393.41;;;5.67;100.00
11856;BME280;5987;53.140;8.904;2022-12-20T00:28:10;101395.94;;;5.73;100.00
11856;BME280;5987;53.140;8.904;2022-12-20T00:31:17;101377.56;;;5.89;100.00
11856;BME280;5987;53.140;8.904;2022-12-20T00:34:21;101374.16;;;5.85;100.00
11856;BME280;5987;53.140;8.904;2022-12-20T00:37:25;101367.91;;;6.03;100.00
11856;BME280;5987;53.140;8.904;2022-12-20T00:40:30;101364.47;;;6.03;100.00
11856;BME280;5987;53.140;8.904;2022-12-20T00:43:34;101380.16;;;5.90;100.00
11856;BME280;5987;53.140;8.904;2022-12-20T00:46:38;101384.50;;;5.93;100.00
11856;BME280;5987;53.140;8.904;2022-12-20T00:49:41;101384.59;;;5.80;100.00
11856;BME280;5987;53.140;8.904;2022-12-20T00:52:45;101386.19;;;5.97;100.00
11856;BME280;5987;53.140;8.904;2022-12-20T00:55:50;101383.63;;;5.92;100.00
11856;BME280;5987;53.140;8.904;2022-12-20T00:58:56;101382.72;;;6.01;100.00
11856;BME280;5987;53.140;8.904;2022-12-20T01:02:01;101373.22;;;5.92;100.00
11856;BME280;5987;53.140;8.904;2022-12-20T01:05:06;101378.38;;;5.98;100.00
11856;BME280;5987;53.140;8.904;2022-12-20T01:08:09;101379.25;;;5.94;100.00
11856;BME280;5987;53.140;8.904;2022-12-20T01:11:17;101378.38;;;6.00;100.00
11856;BME280;5987;53.140;8.904;2022-12-20T01:14:21;101365.25;;;6.11;100.00
11856;BME280;5987;53.140;8.904;2022-12-20T01:17:25;101373.19;;;5.95;100.00
11856;BME280;5987;53.140;8.904;2022-12-20T01:20:29;101372.25;;;6.06;100.00
11856;BME280;5987;53.140;8.904;2022-12-20T01:23:32;101367.81;;;6.14;100.00
11856;BME280;5987;53.140;8.904;2022-12-20T01:26:37;101371.25;;;6.16;100.00
11856;BME280;5987;53.140;8.904;2022-12-20T01:29:41;101373.09;;;6.05;100.00
11856;BME280;5987;53.140;8.904;2022-12-20T01:32:45;101359.97;;;6.15;100.00
11856;BME280;5987;53.140;8.904;2022-12-20T01:36:01;101358.16;;;6.24;100.00
11856;BME280;5987;53.140;8.904;2022-12-20T01:39:09;101365.81;;;6.39;100.00
11856;BME280;5987;53.140;8.904;2022-12-20T01:42:15;101363.41;;;6.21;100.00
11856;BME280;5987;53.140;8.904;2022-12-20T01:45:27;101364.22;;;6.24;100.00
11856;BME280;5987;53.140;8.904;2022-12-20T01:48:31;101367.75;;;6.20;100.00
11856;BME280;5987;53.140;8.904;2022-12-20T01:51:39;101359.00;;;6.27;100.00
11856;BME280;5987;53.140;8.904;2022-12-20T01:54:51;101356.34;;;6.32;100.00
11856;BME280;5987;53.140;8.904;2022-12-20T01:58:01;101357.19;;;6.32;100.00
11856;BME280;5987;53.140;8.904;2022-12-20T02:01:07;101366.84;;;6.27;100.00
11856;BME280;5987;53.140;8.904;2022-12-20T02:04:12;101356.19;;;6.46;100.00
11856;BME280;5987;53.140;8.904;2022-12-20T02:07:22;101348.38;;;6.46;100.00
11856;BME280;5987;53.140;8.904;2022-12-20T02:10:46;101349.09;;;6.57;100.00
11856;BME280;5987;53.140;8.904;2022-12-20T02:14:08;101342.34;;;6.41;100.00
11856;BME280;5987;53.140;8.904;2022-12-20T02:17:25;101337.81;;;6.55;100.00
11856;BME280;5987;53.140;8.904;2022-12-20T02:24:53;101318.84;;;6.41;100.00
11856;BME280;5987;53.140;8.904;2022-12-20T02:28:07;101313.56;;;6.47;100.00
11856;BME280;5987;53.140;8.904;2022-12-20T02:31:23;101320.44;;;6.54;100.00
11856;BME280;5987;53.140;8.904;2022-12-20T02:34:32;101317.91;;;6.48;100.00
11856;BME280;5987;53.140;8.904;2022-12-20T02:37:47;101318.81;;;6.44;100.00
11856;BME280;5987;53.140;8.904;2022-12-20T02:40:57;101315.41;;;6.40;100.00
11856;BME280;5987;53.140;8.904;2022-12-20T02:44:05;101315.22;;;6.54;100.00
11856;BME280;5987;53.140;8.904;2022-12-20T02:47:39;101313.47;;;6.56;100.00
11856;BME280;5987;53.140;8.904;2022-12-20T02:50:49;101322.34;;;6.40;100.00
11856;BME280;5987;53.140;8.904;2022-12-20T02:53:56;101320.69;;;6.32;100.00
11856;BME280;5987;53.140;8.904;2022-12-20T02:57:09;101313.66;;;6.39;100.00
11856;BME280;5987;53.140;8.904;2022-12-20T03:00:19;101315.47;;;6.32;100.00
11856;BME280;5987;53.140;8.904;2022-12-20T03:03:25;101310.94;;;6.47;100.00
11856;BME280;5987;53.140;8.904;2022-12-20T03:06:30;101301.47;;;6.40;100.00
11856;BME280;5987;53.140;8.904;2022-12-20T03:09:36;101312.56;;;6.59;100.00
11856;BME280;5987;53.140;8.904;2022-12-20T03:12:40;101299.69;;;6.45;100.00
11856;BME280;5987;53.140;8.904;2022-12-20T03:15:44;101299.63;;;6.48;100.00
11856;BME280;5987;53.140;8.904;2022-12-20T03:18:50;101303.16;;;6.44;100.00
11856;BME280;5987;53.140;8.904;2022-12-20T03:21:53;101303.75;;;6.66;100.00
11856;BME280;5987;53.140;8.904;2022-12-20T03:24:57;101303.28;;;6.36;100.00
11856;BME280;5987;53.140;8.904;2022-12-20T03:28:02;101305.06;;;6.29;100.00
11856;BME280;5987;53.140;8.904;2022-12-20T03:31:05;101290.22;;;6.36;100.00
11856;BME280;5987;53.140;8.904;2022-12-20T03:34:11;101294.56;;;6.39;100.00
11856;BME280;5987;53.140;8.904;2022-12-20T03:37:15;101299.59;;;6.51;100.00
11856;BME280;5987;53.140;8.904;2022-12-20T03:40:18;101295.44;;;6.36;100.00
11856;BME280;5987;53.140;8.904;2022-12-20T03:43:22;101298.03;;;6.38;100.00
11856;BME280;5987;53.140;8.904;2022-12-20T03:46:26;101300.56;;;6.44;100.00
11856;BME280;5987;53.140;8.904;2022-12-20T03:49:31;101289.09;;;6.57;100.00
11856;BME280;5987;53.140;8.904;2022-12-20T03:52:35;101283.03;;;6.53;100.00
11856;BME280;5987;53.140;8.904;2022-12-20T03:55:39;101287.16;;;6.72;100.00
11856;BME280;5987;53.140;8.904;2022-12-20T03:58:46;101284.59;;;6.68;100.00
11856;BME280;5987;53.140;8.904;2022-12-20T04:01:50;101284.56;;;6.72;100.00
11856;BME280;5987;53.140;8.904;2022-12-20T04:04:55;101276.75;;;6.70;100.00
11856;BME280;5987;53.140;8.904;2022-12-20T04:07:59;101277.63;;;6.69;100.00
11856;BME280;5987;53.140;8.904;2022-12-20T04:11:03;101277.34;;;6.89;100.00
11856;BME280;5987;53.140;8.904;2022-12-20T04:14:18;101289.88;;;6.64;100.00
11856;BME280;5987;53.140;8.904;2022-12-20T04:17:22;101287.13;;;6.75;100.00
11856;BME280;5987;53.140;8.904;2022-12-20T04:20:27;101284.59;;;6.68;100.00
11856;BME280;5987;53.140;8.904;2022-12-20T04:23:30;101280.41;;;6.55;100.00
11856;BME280;5987;53.140;8.904;2022-12-20T04:26:34;101291.72;;;6.56;100.00
11856;BME280;5987;53.140;8.904;2022-12-20T04:29:38;101290.84;;;6.55;100.00
11856;BME280;5987;53.140;8.904;2022-12-20T04:32:42;101282.94;;;6.63;100.00
11856;BME280;5987;53.140;8.904;2022-12-20T04:35:47;101294.16;;;6.68;100.00
11856;BME280;5987;53.140;8.904;2022-12-20T04:38:51;101290.66;;;6.70;100.00
11856;BME280;5987;53.140;8.904;2022-12-20T04:41:55;101284.72;;;6.58;100.00
11856;BME280;5987;53.140;8.904;2022-12-20T04:44:58;101281.16;;;6.65;100.00
11856;BME280;5987;53.140;8.904;2022-12-20T04:48:02;101271.72;;;6.56;100.00
11856;BME280;5987;53.140;8.904;2022-12-20T04:51:28;101269.84;;;6.66;100.00
11856;BME280;5987;53.140;8.904;2022-12-20T04:54:31;101269.78;;;6.70;100.00
11856;BME280;5987;53.140;8.904;2022-12-20T04:57:34;101260.41;;;6.57;100.00
11856;BME280;5987;53.140;8.904;2022-12-20T05:00:38;101262.13;;;6.58;100.00
11856;BME280;5987;53.140;8.904;2022-12-20T05:03:42;101271.81;;;6.47;100.00
11856;BME280;5987;53.140;8.904;2022-12-20T05:06:47;101268.88;;;6.73;100.00
11856;BME280;5987;53.140;8.904;2022-12-20T05:09:51;101268.25;;;6.56;100.00
11856;BME280;5987;53.140;8.904;2022-12-20T05:12:54;101266.25;;;6.75;100.00
11856;BME280;5987;53.140;8.904;2022-12-20T05:16:00;101266.31;;;6.70;100.00
11856;BME280;5987;53.140;8.904;2022-12-20T05:19:04;101273.25;;;6.73;100.00
11856;BME280;5987;53.140;8.904;2022-12-20T05:22:10;101267.16;;;6.74;100.00
11856;BME280;5987;53.140;8.904;2022-12-20T05:25:31;101253.13;;;6.78;100.00
11856;BME280;5987;53.140;8.904;2022-12-20T05:28:53;101252.25;;;6.80;100.00
11856;BME280;5987;53.140;8.904;2022-12-20T05:31:57;101254.72;;;6.90;100.00
11856;BME280;5987;53.140;8.904;2022-12-20T05:35:00;101236.56;;;6.80;100.00
11856;BME280;5987;53.140;8.904;2022-12-20T05:38:05;101245.06;;;6.96;100.00
11856;BME280;5987;53.140;8.904;2022-12-20T05:41:09;101234.47;;;7.06;100.00
11856;BME280;5987;53.140;8.904;2022-12-20T05:44:13;101234.31;;;7.15;100.00
11856;BME280;5987;53.140;8.904;2022-12-20T05:47:17;101232.47;;;7.20;100.00
11856;BME280;5987;53.140;8.904;2022-12-20T05:50:20;101229.97;;;7.15;100.00
11856;BME280;5987;53.140;8.904;2022-12-20T05:53:25;101234.34;;;7.13;100.00
11856;BME280;5987;53.140;8.904;2022-12-20T05:56:29;101242.06;;;7.21;100.00
11856;BME280;5987;53.140;8.904;2022-12-20T05:59:33;101245.47;;;7.26;100.00
11856;BME280;5987;53.140;8.904;2022-12-20T06:02:36;101262.94;;;7.21;100.00
11856;BME280;5987;53.140;8.904;2022-12-20T06:05:41;101268.19;;;7.19;100.00
11856;BME280;5987;53.140;8.904;2022-12-20T06:08:47;101268.09;;;7.27;100.00
11856;BME280;5987;53.140;8.904;2022-12-20T06:11:51;101280.28;;;7.25;100.00
11856;BME280;5987;53.140;8.904;2022-12-20T06:14:54;101281.09;;;7.30;100.00
11856;BME280;5987;53.140;8.904;2022-12-20T06:17:58;101293.34;;;7.25;100.00
11856;BME280;5987;53.140;8.904;2022-12-20T06:21:02;101281.06;;;7.32;100.00
11856;BME280;5987;53.140;8.904;2022-12-20T06:24:08;101281.09;;;7.30;100.00
11856;BME280;5987;53.140;8.904;2022-12-20T06:27:11;101281.09;;;7.30;100.00
11856;BME280;5987;53.140;8.904;2022-12-20T06:30:16;101288.06;;;7.28;100.00
11856;BME280;5987;53.140;8.904;2022-12-20T06:33:20;101264.69;;;7.20;100.00
11856;BME280;5987;53.140;8.904;2022-12-20T06:36:24;101250.75;;;7.20;100.00
11856;BME280;5987;53.140;8.904;2022-12-20T06:39:29;101247.19;;;7.26;100.00
11856;BME280;5987;53.140;8.904;2022-12-20T06:42:33;101241.22;;;7.19;100.00
11856;BME280;5987;53.140;8.904;2022-12-20T06:45:37;101236.09;;;7.13;100.00
11856;BME280;5987;53.140;8.904;2022-12-20T06:48:44;101250.97;;;7.09;100.00
11856;BME280;5987;53.140;8.904;2022-12-20T06:51:48;101243.81;;;7.20;100.00
11856;BME280;5987;53.140;8.904;2022-12-20T06:54:53;101246.59;;;7.08;100.00
11856;BME280;5987;53.140;8.904;2022-12-20T06:57:57;101247.50;;;7.07;100.00
11856;BME280;5987;53.140;8.904;2022-12-20T07:01:01;101240.63;;;7.01;100.00
11856;BME280;5987;53.140;8.904;2022-12-20T07:04:05;101239.63;;;7.09;100.00
11856;BME280;5987;53.140;8.904;2022-12-20T07:07:10;101230.72;;;7.22;100.00
11856;BME280;5987;53.140;8.904;2022-12-20T07:10:17;101238.72;;;7.11;100.00
11856;BME280;5987;53.140;8.904;2022-12-20T07:13:22;101236.13;;;7.11;100.00
11856;BME280;5987;53.140;8.904;2022-12-20T07:16:27;101226.56;;;7.09;100.00
11856;BME280;5987;53.140;8.904;2022-12-20T07:19:31;101243.94;;;7.11;100.00
11856;BME280;5987;53.140;8.904;2022-12-20T07:22:35;101236.31;;;7.00;100.00
11856;BME280;5987;53.140;8.904;2022-12-20T07:25:40;101237.03;;;7.07;100.00
11856;BME280;5987;53.140;8.904;2022-12-20T07:28:44;101238.81;;;7.07;100.00
11856;BME280;5987;53.140;8.904;2022-12-20T07:31:48;101236.09;;;7.13;100.00
11856;BME280;5987;53.140;8.904;2022-12-20T07:34:52;101237.81;;;7.14;100.00
11856;BME280;5987;53.140;8.904;2022-12-20T07:37:56;101238.69;;;7.13;100.00
11856;BME280;5987;53.140;8.904;2022-12-20T07:41:06;101239.50;;;7.18;100.00
11856;BME280;5987;53.140;8.904;2022-12-20T07:44:10;101242.91;;;7.23;100.00
11856;BME280;5987;53.140;8.904;2022-12-20T07:47:14;101242.69;;;7.35;100.00
11856;BME280;5987;53.140;8.904;2022-12-20T07:50:18;101242.00;;;7.24;100.00
11856;BME280;5987;53.140;8.904;2022-12-20T07:53:24;101232.13;;;7.42;100.00
11856;BME280;5987;53.140;8.904;2022-12-20T07:56:32;101230.59;;;7.31;100.00
11856;BME280;5987;53.140;8.904;2022-12-20T07:59:47;101237.44;;;7.35;100.00
11856;BME280;5987;53.140;8.904;2022-12-20T08:02:59;101212.19;;;7.37;100.00
11856;BME280;5987;53.140;8.904;2022-12-20T08:06:07;101207.75;;;7.41;100.00
11856;BME280;5987;53.140;8.904;2022-12-20T08:09:13;101214.41;;;7.59;100.00
11856;BME280;5987;53.140;8.904;2022-12-20T08:12:20;101202.19;;;7.61;100.00
11856;BME280;5987;53.140;8.904;2022-12-20T08:15:25;101202.41;;;7.49;100.00
11856;BME280;5987;53.140;8.904;2022-12-20T08:18:28;101199.72;;;7.52;100.00
11856;BME280;5987;53.140;8.904;2022-12-20T08:21:33;101204.03;;;7.54;100.00
11856;BME280;5987;53.140;8.904;2022-12-20T08:24:37;101202.06;;;7.67;100.00
11856;BME280;5987;53.140;8.904;2022-12-20T08:27:42;101189.88;;;7.66;100.00
11856;BME280;5987;53.140;8.904;2022-12-20T08:30:46;101185.50;;;7.68;100.00
11856;BME280;5987;53.140;8.904;2022-12-20T08:33:53;101192.06;;;7.89;100.00
11856;BME280;5987;53.140;8.904;2022-12-20T08:36:57;101199.94;;;7.88;100.00
11856;BME280;5987;53.140;8.904;2022-12-20T08:40:01;101191.19;;;7.89;100.00
11856;BME280;5987;53.140;8.904;2022-12-20T08:43:06;101201.50;;;7.97;100.00
11856;BME280;5987;53.140;8.904;2022-12-20T08:46:11;101200.41;;;8.07;100.00
11856;BME280;5987;53.140;8.904;2022-12-20T08:49:15;101198.75;;;8.04;100.00
11856;BME280;5987;53.140;8.904;2022-12-20T08:52:20;101188.75;;;8.23;100.00
11856;BME280;5987;53.140;8.904;2022-12-20T08:55:24;101190.28;;;8.32;100.00
11856;BME280;5987;53.140;8.904;2022-12-20T08:58:32;101192.28;;;8.21;100.00
11856;BME280;5987;53.140;8.904;2022-12-20T09:01:36;101195.66;;;8.26;100.00
11856;BME280;5987;53.140;8.904;2022-12-20T09:04:40;101199.19;;;8.23;100.00
11856;BME280;5987;53.140;8.904;2022-12-20T09:07:44;101192.91;;;8.32;100.00
11856;BME280;5987;53.140;8.904;2022-12-20T09:10:48;101196.50;;;8.27;100.00
11856;BME280;5987;53.140;8.904;2022-12-20T09:13:56;101188.50;;;8.34;100.00
11856;BME280;5987;53.140;8.904;2022-12-20T09:17:01;101187.75;;;8.29;100.00
11856;BME280;5987;53.140;8.904;2022-12-20T09:20:06;101182.25;;;8.41;100.00
11856;BME280;5987;53.140;8.904;2022-12-20T09:23:10;101179.41;;;8.54;100.00
11856;BME280;5987;53.140;8.904;2022-12-20T09:26:15;101160.69;;;8.71;100.00
11856;BME280;5987;53.140;8.904;2022-12-20T09:29:21;101156.44;;;8.65;100.00
11856;BME280;5987;53.140;8.904;2022-12-20T09:32:34;101164.41;;;8.59;100.00
11856;BME280;5987;53.140;8.904;2022-12-20T09:35:44;101159.75;;;8.73;100.00
11856;BME280;5987;53.140;8.904;2022-12-20T09:38:48;101147.25;;;8.85;100.00
11856;BME280;5987;53.140;8.904;2022-12-20T09:41:52;101153.47;;;8.81;100.00
11856;BME280;5987;53.140;8.904;2022-12-20T09:45:05;101148.16;;;8.84;100.00
11856;BME280;5987;53.140;8.904;2022-12-20T09:48:18;101144.56;;;8.88;100.00
11856;BME280;5987;53.140;8.904;2022-12-20T09:51:44;101152.28;;;8.92;100.00
11856;BME280;5987;53.140;8.904;2022-12-20T09:55:00;101150.84;;;8.81;100.00
11856;BME280;5987;53.140;8.904;2022-12-20T09:58:26;101150.97;;;8.74;100.00
11856;BME280;5987;53.140;8.904;2022-12-20T10:01:36;101152.78;;;8.72;100.00
11856;BME280;5987;53.140;8.904;2022-12-20T10:04:42;101149.13;;;8.80;100.00
11856;BME280;5987;53.140;8.904;2022-12-20T10:07:54;101142.19;;;8.77;100.00
11856;BME280;5987;53.140;8.904;2022-12-20T10:11:07;101131.69;;;8.79;100.00
11856;BME280;5987;53.140;8.904;2022-12-20T10:14:34;101136.03;;;8.80;100.00
11856;BME280;5987;53.140;8.904;2022-12-20T10:17:57;101119.50;;;8.78;100.00
11856;BME280;5987;53.140;8.904;2022-12-20T10:21:10;101111.44;;;8.85;100.00
11856;BME280;5987;53.140;8.904;2022-12-20T10:24:20;101114.09;;;8.84;100.00
11856;BME280;5987;53.140;8.904;2022-12-20T10:27:27;101104.41;;;8.87;100.00
11856;BME280;5987;53.140;8.904;2022-12-20T10:30:32;101096.34;;;8.95;100.00
11856;BME280;5987;53.140;8.904;2022-12-20T10:33:40;101099.78;;;8.99;100.00
11856;BME280;5987;53.140;8.904;2022-12-20T10:37:11;101088.38;;;9.00;100.00
11856;BME280;5987;53.140;8.904;2022-12-20T10:40:27;101082.13;;;9.05;100.00
11856;BME280;5987;53.140;8.904;2022-12-20T10:43:57;101079.44;;;9.07;100.00
11856;BME280;5987;53.140;8.904;2022-12-20T10:47:02;101090.59;;;9.15;100.00
11856;BME280;5987;53.140;8.904;2022-12-20T10:50:16;101091.53;;;9.13;100.00
11856;BME280;5987;53.140;8.904;2022-12-20T10:53:22;101087.66;;;9.27;100.00
11856;BME280;5987;53.140;8.904;2022-12-20T10:56:31;101090.47;;;9.20;100.00
11856;BME280;5987;53.140;8.904;2022-12-20T10:59:41;101074.75;;;9.20;100.00
11856;BME280;5987;53.140;8.904;2022-12-20T11:03:06;101070.41;;;9.19;100.00
11856;BME280;5987;53.140;8.904;2022-12-20T11:06:16;101068.75;;;9.16;100.00
11856;BME280;5987;53.140;8.904;2022-12-20T11:09:26;101072.81;;;9.26;100.00
11856;BME280;5987;53.140;8.904;2022-12-20T11:12:30;101079.81;;;9.26;100.00
11856;BME280;5987;53.140;8.904;2022-12-20T11:15:35;101062.97;;;9.35;100.00
11856;BME280;5987;53.140;8.904;2022-12-20T11:18:50;101071.78;;;9.32;100.00
11856;BME280;5987;53.140;8.904;2022-12-20T11:22:10;101071.75;;;9.34;100.00
11856;BME280;5987;53.140;8.904;2022-12-20T11:25:42;101067.47;;;9.31;100.00
11856;BME280;5987;53.140;8.904;2022-12-20T11:29:07;101065.78;;;9.29;100.00
11856;BME280;5987;53.140;8.904;2022-12-20T11:32:30;101068.59;;;9.21;100.00
11856;BME280;5987;53.140;8.904;2022-12-20T11:35:50;101064.19;;;9.23;100.00
11856;BME280;5987;53.140;8.904;2022-12-20T11:39:12;101060.13;;;9.11;100.00
11856;BME280;5987;53.140;8.904;2022-12-20T11:42:27;101060.91;;;9.15;100.00
11856;BME280;5987;53.140;8.904;2022-12-20T11:45:45;101050.78;;;9.02;100.00
11856;BME280;5987;53.140;8.904;2022-12-20T11:49:30;101057.97;;;8.94;100.00
11856;BME280;5987;53.140;8.904;2022-12-20T11:52:47;101054.63;;;8.89;100.00
11856;BME280;5987;53.140;8.904;2022-12-20T11:56:00;101051.44;;;8.78;100.00
11856;BME280;5987;53.140;8.904;2022-12-20T11:59:11;101053.94;;;8.82;100.00
11856;BME280;5987;53.140;8.904;2022-12-20T12:02:26;101047.47;;;8.61;100.00
11856;BME280;5987;53.140;8.904;2022-12-20T12:05:40;101047.28;;;8.69;100.00
11856;BME280;5987;53.140;8.904;2022-12-20T12:08:51;101043.06;;;8.63;100.00
11856;BME280;5987;53.140;8.904;2022-12-20T12:12:02;101035.16;;;8.65;100.00
11856;BME280;5987;53.140;8.904;2022-12-20T12:15:39;101028.22;;;8.64;100.00
11856;BME280;5987;53.140;8.904;2022-12-20T12:18:49;101024.84;;;8.58;100.00
11856;BME280;5987;53.140;8.904;2022-12-20T12:22:00;101025.75;;;8.57;100.00
11856;BME280;5987;53.140;8.904;2022-12-20T12:25:14;101024.66;;;8.66;100.00
11856;BME280;5987;53.140;8.904;2022-12-20T12:28:22;101015.19;;;8.62;100.00
11856;BME280;5987;53.140;8.904;2022-12-20T12:31:33;101017.94;;;8.56;100.00
11856;BME280;5987;53.140;8.904;2022-12-20T12:34:58;101026.69;;;8.55;100.00
11856;BME280;5987;53.140;8.904;2022-12-20T12:42:19;101011.94;;;8.52;100.00
11856;BME280;5987;53.140;8.904;2022-12-20T12:45:45;101018.91;;;8.52;100.00
11856;BME280;5987;53.140;8.904;2022-12-20T12:48:57;101009.47;;;8.46;100.00
11856;BME280;5987;53.140;8.904;2022-12-20T12:52:04;101022.59;;;8.45;100.00
11856;BME280;5987;53.140;8.904;2022-12-20T12:55:37;101013.09;;;8.39;100.00
11856;BME280;5987;53.140;8.904;2022-12-20T12:59:08;101012.25;;;8.38;100.00
11856;BME280;5987;53.140;8.904;2022-12-20T13:02:48;101014.97;;;8.34;100.00
11856;BME280;5987;53.140;8.904;2022-12-20T13:05:53;101017.63;;;8.32;100.00
11856;BME280;5987;53.140;8.904;2022-12-20T13:09:19;101010.66;;;8.33;100.00
11856;BME280;5987;53.140;8.904;2022-12-20T13:12:56;101021.19;;;8.28;100.00
11856;BME280;5987;53.140;8.904;2022-12-20T13:16:26;101021.16;;;8.31;100.00
11856;BME280;5987;53.140;8.904;2022-12-20T13:19:54;101020.28;;;8.31;100.00
11856;BME280;5987;53.140;8.904;2022-12-20T13:23:14;101018.63;;;8.27;100.00
11856;BME280;5987;53.140;8.904;2022-12-20T13:26:49;101034.25;;;8.30;100.00
11856;BME280;5987;53.140;8.904;2022-12-20T13:30:26;101022.84;;;8.32;100.00
11856;BME280;5987;53.140;8.904;2022-12-20T13:33:42;101030.53;;;8.40;100.00
11856;BME280;5987;53.140;8.904;2022-12-20T13:36:57;101023.78;;;8.31;100.00
11856;BME280;5987;53.140;8.904;2022-12-20T13:40:22;101028.97;;;8.33;100.00
11856;BME280;5987;53.140;8.904;2022-12-20T13:43:35;101025.63;;;8.26;100.00
11856;BME280;5987;53.140;8.904;2022-12-20T13:46:51;101013.31;;;8.31;100.00
11856;BME280;5987;53.140;8.904;2022-12-20T13:50:00;101020.34;;;8.28;100.00
11856;BME280;5987;53.140;8.904;2022-12-20T13:53:17;101009.03;;;8.27;100.00
11856;BME280;5987;53.140;8.904;2022-12-20T13:56:34;101009.81;;;8.31;100.00
11856;BME280;5987;53.140;8.904;2022-12-20T13:59:46;101003.81;;;8.27;100.00
11856;BME280;5987;53.140;8.904;2022-12-20T14:02:52;101005.63;;;8.23;100.00
11856;BME280;5987;53.140;8.904;2022-12-20T14:06:00;101002.09;;;8.26;100.00
11856;BME280;5987;53.140;8.904;2022-12-20T14:09:27;101004.63;;;8.29;100.00
11856;BME280;5987;53.140;8.904;2022-12-20T14:12:32;101013.63;;;8.17;100.00
11856;BME280;5987;53.140;8.904;2022-12-20T14:15:38;101002.44;;;8.11;100.00
11856;BME280;5987;53.140;8.904;2022-12-20T14:18:47;101016.28;;;8.16;100.00
11856;BME280;5987;53.140;8.904;2022-12-20T14:21:51;101012.19;;;8.04;100.00
11856;BME280;5987;53.140;8.904;2022-12-20T14:24:57;101013.22;;;7.97;100.00
11856;BME280;5987;53.140;8.904;2022-12-20T14:28:01;101004.38;;;8.02;100.00
11856;BME280;5987;53.140;8.904;2022-12-20T14:31:22;100998.34;;;8.00;100.00
11856;BME280;5987;53.140;8.904;2022-12-20T14:34:29;101010.47;;;8.04;100.00
11856;BME280;5987;53.140;8.904;2022-12-20T14:37:54;101016.56;;;8.03;100.00
11856;BME280;5987;53.140;8.904;2022-12-20T14:40:59;101005.31;;;8.00;100.00
11856;BME280;5987;53.140;8.904;2022-12-20T14:44:15;101004.38;;;8.02;100.00
11856;BME280;5987;53.140;8.904;2022-12-20T14:47:24;101000.97;;;8.00;100.00
11856;BME280;5987;53.140;8.904;2022-12-20T14:50:34;100995.56;;;8.06;100.00
11856;BME280;5987;53.140;8.904;2022-12-20T14:53:39;100999.84;;;8.11;100.00
11856;BME280;5987;53.140;8.904;2022-12-20T14:56:50;101002.75;;;7.98;100.00
11856;BME280;5987;53.140;8.904;2022-12-20T15:00:00;101001.72;;;8.04;100.00
11856;BME280;5987;53.140;8.904;2022-12-20T15:03:16;101006.97;;;8.04;100.00
11856;BME280;5987;53.140;8.904;2022-12-20T15:06:33;101002.53;;;8.07;100.00
11856;BME280;5987;53.140;8.904;2022-12-20T15:09:40;101004.38;;;8.02;100.00
11856;BME280;5987;53.140;8.904;2022-12-20T15:12:45;100986.16;;;7.99;100.00
11856;BME280;5987;53.140;8.904;2022-12-20T15:15:49;100975.59;;;8.04;100.00
11856;BME280;5987;53.140;8.904;2022-12-20T15:18:55;100983.47;;;8.02;100.00
11856;BME280;5987;53.140;8.904;2022-12-20T15:21:59;100986.03;;;8.04;100.00
11856;BME280;5987;53.140;8.904;2022-12-20T15:25:13;100986.69;;;8.14;100.00
11856;BME280;5987;53.140;8.904;2022-12-20T15:28:22;100993.81;;;8.07;100.00
11856;BME280;5987;53.140;8.904;2022-12-20T15:31:28;100995.56;;;8.06;100.00
11856;BME280;5987;53.140;8.904;2022-12-20T15:34:37;100991.84;;;8.17;100.00
11856;BME280;5987;53.140;8.904;2022-12-20T15:37:42;100985.53;;;8.26;100.00
11856;BME280;5987;53.140;8.904;2022-12-20T15:40:49;100986.47;;;8.23;100.00
11856;BME280;5987;53.140;8.904;2022-12-20T15:43:57;100983.91;;;8.21;100.00
11856;BME280;5987;53.140;8.904;2022-12-20T15:47:01;100988.16;;;8.24;100.00
11856;BME280;5987;53.140;8.904;2022-12-20T15:50:07;100981.00;;;8.32;100.00
11856;BME280;5987;53.140;8.904;2022-12-20T15:53:14;100981.06;;;8.29;100.00
11856;BME280;5987;53.140;8.904;2022-12-20T15:56:21;100989.81;;;8.28;100.00
11856;BME280;5987;53.140;8.904;2022-12-20T15:59:27;100992.44;;;8.28;100.00
11856;BME280;5987;53.140;8.904;2022-12-20T16:02:51;100991.31;;;8.38;100.00
11856;BME280;5987;53.140;8.904;2022-12-20T16:05:55;100983.59;;;8.32;100.00
11856;BME280;5987;53.140;8.904;2022-12-20T16:08:58;100990.66;;;8.30;100.00
11856;BME280;5987;53.140;8.904;2022-12-20T16:12:03;100991.38;;;8.35;100.00
11856;BME280;5987;53.140;8.904;2022-12-20T16:15:21;100988.56;;;8.45;100.00
11856;BME280;5987;53.140;8.904;2022-12-20T16:18:25;100977.22;;;8.46;100.00
11856;BME280;5987;53.140;8.904;2022-12-20T16:21:43;100972.34;;;8.30;100.00
11856;BME280;5987;53.140;8.904;2022-12-20T16:24:48;100983.50;;;8.37;100.00
11856;BME280;5987;53.140;8.904;2022-12-20T16:27:53;100986.22;;;8.32;100.00
11856;BME280;5987;53.140;8.904;2022-12-20T16:30:58;100990.41;;;8.39;100.00
11856;BME280;5987;53.140;8.904;2022-12-20T16:34:04;100975.69;;;8.35;100.00
11856;BME280;5987;53.140;8.904;2022-12-20T16:37:08;100973.97;;;8.34;100.00
11856;BME280;5987;53.140;8.904;2022-12-20T16:40:14;100978.28;;;8.35;100.00
11856;BME280;5987;53.140;8.904;2022-12-20T16:43:17;100979.16;;;8.36;100.00
11856;BME280;5987;53.140;8.904;2022-12-20T16:46:25;100973.81;;;8.40;100.00
11856;BME280;5987;53.140;8.904;2022-12-20T16:49:29;100965.84;;;8.47;100.00